Terminal Aerodrome Forecast
Issued by NWS Newport/Morehead City, NC

Home | Current Version | Previous Version | Graphics & Text | Print | Product List | Glossary On
Versions: 1 2 3 4 5 6 7 8 9 10 11 12
000
FTUS42 KMHX 271720
TAFEWN
TAF
KEWN 271720Z 2718/2818 15006KT P6SM SCT040 BKN250
     FM280800 00000KT 2SM BR BKN008
     FM281300 10006KT P6SM SCT030=

USA.gov is the U.S. government's official web portal to all federal, state and local government web resources and services.